createdAt,value
2023-03-25T00:00:25.692Z,8.86
2023-03-25T00:05:29.885Z,8.87
2023-03-25T00:10:34.025Z,8.87
2023-03-25T00:15:38.223Z,8.81
2023-03-25T00:20:42.373Z,8.71
2023-03-25T00:25:46.526Z,8.66
2023-03-25T00:30:50.743Z,8.71
2023-03-25T00:35:54.874Z,8.65
2023-03-25T00:40:59.021Z,8.65
2023-03-25T00:46:01.300Z,8.69
2023-03-25T00:51:05.454Z,8.70
2023-03-25T00:56:07.727Z,8.78
2023-03-25T01:01:11.910Z,8.77
2023-03-25T01:06:16.041Z,8.79
2023-03-25T01:11:20.196Z,8.85
2023-03-25T01:16:24.447Z,8.86
2023-03-25T01:21:28.517Z,8.84
2023-03-25T01:26:32.685Z,8.87
2023-03-25T01:31:36.951Z,8.87
2023-03-25T01:36:40.990Z,8.83
2023-03-25T01:41:50.322Z,8.86
2023-03-25T01:46:49.653Z,8.90
2023-03-25T01:51:53.522Z,8.89
2023-03-25T01:56:57.948Z,8.90
2023-03-25T02:02:01.821Z,8.88
2023-03-25T02:07:05.982Z,8.87
2023-03-25T02:12:08.252Z,8.85
2023-03-25T02:17:12.401Z,8.83
2023-03-25T02:22:16.548Z,8.85
2023-03-25T02:27:20.736Z,8.85
2023-03-25T02:32:24.928Z,8.86
2023-03-25T02:37:29.058Z,8.84
2023-03-25T02:42:31.337Z,8.83
2023-03-25T02:47:35.506Z,8.81
2023-03-25T02:52:39.624Z,8.79
2023-03-25T02:57:43.816Z,8.76
2023-03-25T03:02:48.041Z,8.76
2023-03-25T03:07:52.183Z,8.71
2023-03-25T03:12:56.290Z,8.70
2023-03-25T03:18:00.571Z,8.71
2023-03-25T03:28:08.785Z,8.64
2023-03-25T03:33:12.977Z,8.59
2023-03-25T03:38:17.120Z,8.58
2023-03-25T03:43:21.275Z,8.53
2023-03-25T03:48:25.431Z,8.44
2023-03-25T03:53:29.593Z,8.38
2023-03-25T03:58:33.736Z,8.40
2023-03-25T04:03:37.965Z,8.38
2023-03-25T04:08:42.101Z,8.35
2023-03-25T04:13:46.238Z,8.30
2023-03-25T04:18:50.408Z,8.25
2023-03-25T04:23:54.592Z,8.29
2023-03-25T04:29:00.510Z,8.30
2023-03-25T04:34:01.017Z,8.34
2023-03-25T04:39:05.212Z,8.39
2023-03-25T04:44:07.457Z,8.37
2023-03-25T04:49:11.579Z,8.34
2023-03-25T04:54:18.230Z,8.28
2023-03-25T04:59:18.030Z,8.23
2023-03-25T05:04:22.214Z,8.21
2023-03-25T05:09:26.391Z,8.22
2023-03-25T05:14:30.500Z,8.22
2023-03-25T05:19:34.698Z,8.26
2023-03-25T05:24:38.848Z,8.26
2023-03-25T05:29:43.006Z,8.29
2023-03-25T05:34:47.206Z,8.17
2023-03-25T05:39:51.348Z,8.00
2023-03-25T05:44:55.470Z,7.89
2023-03-25T05:49:59.670Z,7.89
2023-03-25T05:55:03.777Z,7.93
2023-03-25T06:00:07.974Z,8.03
2023-03-25T06:05:12.151Z,8.08
2023-03-25T06:10:16.324Z,8.08
2023-03-25T06:15:20.438Z,8.13
2023-03-25T06:20:24.622Z,8.17
2023-03-25T06:25:28.824Z,8.18
2023-03-25T06:30:32.930Z,8.22
2023-03-25T06:35:37.146Z,8.22
2023-03-25T06:40:41.279Z,8.19
2023-03-25T06:45:43.555Z,8.18
2023-03-25T06:50:47.761Z,8.24
2023-03-25T06:55:50.231Z,8.28
2023-03-25T07:00:54.142Z,8.27
2023-03-25T07:05:58.319Z,8.05
2023-03-25T07:11:02.462Z,7.91
2023-03-25T07:16:06.670Z,7.89
2023-03-25T07:21:10.778Z,7.93
2023-03-25T07:26:14.935Z,8.07
2023-03-25T07:31:19.147Z,8.20
2023-03-25T07:36:23.254Z,8.44
2023-03-25T07:41:27.413Z,8.52
2023-03-25T07:46:31.878Z,8.64
2023-03-25T07:51:35.774Z,8.66
2023-03-25T07:56:39.975Z,8.67
2023-03-25T08:01:44.114Z,8.57
2023-03-25T08:06:48.268Z,8.62
2023-03-25T08:11:52.395Z,8.65
2023-03-25T08:16:56.587Z,8.64
2023-03-25T08:22:00.738Z,8.60
2023-03-25T08:27:14.717Z,8.57
2023-03-25T08:32:09.037Z,8.69
2023-03-25T08:37:13.200Z,8.92
2023-03-25T08:42:15.476Z,9.22
2023-03-25T08:47:19.642Z,9.44
2023-03-25T08:52:23.821Z,9.33
2023-03-25T08:57:26.055Z,9.34
2023-03-25T09:02:30.271Z,9.38
2023-03-25T09:07:34.440Z,9.50
2023-03-25T09:12:38.546Z,9.52
2023-03-25T09:17:42.819Z,9.59
2023-03-25T09:22:47.049Z,9.82
2023-03-25T09:27:51.051Z,10.03
2023-03-25T09:32:55.303Z,9.95
2023-03-25T09:37:59.329Z,9.98
2023-03-25T09:43:03.554Z,10.24
2023-03-25T09:48:07.710Z,10.29
2023-03-25T09:53:11.847Z,10.13
2023-03-25T09:58:16.020Z,9.88
2023-03-25T10:03:20.206Z,9.80
2023-03-25T10:08:24.364Z,9.84
2023-03-25T10:13:28.479Z,9.96
2023-03-25T10:18:32.663Z,10.23
2023-03-25T10:23:36.814Z,10.27
2023-03-25T10:28:40.962Z,10.28
2023-03-25T10:33:45.165Z,10.68
2023-03-25T10:38:49.306Z,10.76
2023-03-25T10:43:51.552Z,10.81
2023-03-25T10:48:55.730Z,10.87
2023-03-25T10:53:59.902Z,10.94
2023-03-25T10:59:04.051Z,11.08
2023-03-25T11:04:08.200Z,10.99
2023-03-25T11:09:12.366Z,11.11
2023-03-25T11:14:16.554Z,11.30
2023-03-25T11:19:21.128Z,10.91
2023-03-25T11:24:24.859Z,10.28
2023-03-25T11:29:29.037Z,10.04
2023-03-25T11:34:33.225Z,10.11
2023-03-25T11:39:37.357Z,10.20
2023-03-25T11:44:41.497Z,10.25
2023-03-25T11:49:45.638Z,10.24
2023-03-25T11:54:49.833Z,10.17
2023-03-25T11:59:53.966Z,9.81
2023-03-25T12:04:58.161Z,10.06
2023-03-25T12:10:02.349Z,10.59
2023-03-25T12:15:06.487Z,10.61
2023-03-25T12:20:10.646Z,10.43
2023-03-25T12:25:14.776Z,10.81
2023-03-25T12:30:17.042Z,10.71
2023-03-25T12:35:21.253Z,11.35
2023-03-25T12:40:23.517Z,11.38
2023-03-25T12:45:27.656Z,11.40
2023-03-25T12:50:33.688Z,11.39
2023-03-25T12:55:36.017Z,11.37
2023-03-25T13:00:40.181Z,11.70
2023-03-25T13:05:44.320Z,11.89
2023-03-25T13:10:48.574Z,12.12
2023-03-25T13:15:52.635Z,12.16
2023-03-25T13:20:56.786Z,12.41
2023-03-25T13:26:00.947Z,11.94
2023-03-25T13:31:05.091Z,12.03
2023-03-25T13:36:09.284Z,11.69
2023-03-25T13:41:13.404Z,11.09
2023-03-25T13:46:25.678Z,10.36
2023-03-25T13:51:21.754Z,10.27
2023-03-25T13:56:25.984Z,10.76
2023-03-25T14:01:30.099Z,10.95
2023-03-25T14:06:34.211Z,11.17
2023-03-25T14:11:38.367Z,11.04
2023-03-25T14:16:42.554Z,11.35
2023-03-25T14:21:46.687Z,11.08
2023-03-25T14:26:48.982Z,10.57
2023-03-25T14:31:53.316Z,10.33
2023-03-25T14:36:57.329Z,10.10
2023-03-25T14:42:01.469Z,9.86
2023-03-25T14:47:05.603Z,9.65
2023-03-25T14:52:09.766Z,9.40
2023-03-25T14:57:12.159Z,9.26
2023-03-25T15:02:16.202Z,9.07
2023-03-25T15:07:20.388Z,9.27
2023-03-25T15:12:24.532Z,9.22
2023-03-25T15:17:28.708Z,9.16
2023-03-25T15:22:32.898Z,9.07
2023-03-25T15:27:37.000Z,9.18
2023-03-25T15:32:41.193Z,9.14
2023-03-25T15:37:46.656Z,9.03
2023-03-25T15:42:49.603Z,9.04
2023-03-25T15:47:53.725Z,8.95
2023-03-25T15:52:57.866Z,8.96
2023-03-25T15:58:02.076Z,9.33
2023-03-25T16:03:06.340Z,9.21
2023-03-25T16:08:10.398Z,9.03
2023-03-25T16:13:14.481Z,8.85
2023-03-25T16:18:18.646Z,8.94
2023-03-25T16:23:22.790Z,9.58
2023-03-25T16:28:26.983Z,11.52
2023-03-25T16:33:31.117Z,11.71
2023-03-25T16:38:35.265Z,10.39
2023-03-25T16:43:37.601Z,10.05
2023-03-25T16:48:41.716Z,9.81
2023-03-25T16:54:38.077Z,9.95
2023-03-25T16:59:41.998Z,9.68
2023-03-25T17:04:46.153Z,9.60
2023-03-25T17:09:50.348Z,9.54
2023-03-25T17:14:54.508Z,9.43
2023-03-25T17:19:58.664Z,9.37
2023-03-25T17:25:02.852Z,9.38
2023-03-25T17:30:07.000Z,9.39
2023-03-25T17:35:11.151Z,9.41
2023-03-25T17:40:15.332Z,9.41
2023-03-25T17:45:19.481Z,9.39
2023-03-25T17:50:23.652Z,9.39
2023-03-25T17:55:27.819Z,9.29
2023-03-25T18:00:31.948Z,9.02
2023-03-25T18:05:36.195Z,8.76
2023-03-25T18:10:40.267Z,8.61
2023-03-25T18:15:44.472Z,8.55
2023-03-25T18:20:48.616Z,8.55
2023-03-25T18:25:52.803Z,8.63
2023-03-25T18:30:55.350Z,8.75
2023-03-25T18:35:59.199Z,8.83
2023-03-25T18:41:03.376Z,8.90
2023-03-25T18:46:07.526Z,8.88
2023-03-25T18:51:11.675Z,8.90
2023-03-25T18:56:15.855Z,8.94
2023-03-25T19:01:20.044Z,8.97
2023-03-25T19:06:24.128Z,9.00
2023-03-25T19:11:28.334Z,9.04
2023-03-25T19:16:32.554Z,9.11
2023-03-25T19:21:36.716Z,9.11
2023-03-25T19:26:40.839Z,9.09
2023-03-25T19:31:44.960Z,9.01
2023-03-25T19:36:49.175Z,8.96
2023-03-25T19:41:53.290Z,8.93
2023-03-25T19:46:57.474Z,8.98
2023-03-25T19:52:01.637Z,9.04
2023-03-25T19:57:05.819Z,9.09
2023-03-25T20:02:09.979Z,9.02
2023-03-25T20:07:14.115Z,8.69
2023-03-25T20:12:18.266Z,8.50
2023-03-25T20:17:20.567Z,8.32
2023-03-25T20:22:25.161Z,8.23
2023-03-25T20:27:26.965Z,8.17
2023-03-25T20:32:39.725Z,8.13
2023-03-25T20:37:35.301Z,8.11
2023-03-25T20:42:39.470Z,8.06
2023-03-25T20:47:43.623Z,7.97
2023-03-25T20:52:49.912Z,7.78
2023-03-25T20:57:51.984Z,7.72
2023-03-25T21:02:56.166Z,7.61
2023-03-25T21:08:00.287Z,7.55
2023-03-25T21:13:04.404Z,7.61
2023-03-25T21:18:08.625Z,7.64
2023-03-25T21:23:12.728Z,7.66
2023-03-25T21:28:18.138Z,7.59
2023-03-25T21:33:21.103Z,7.53
2023-03-25T21:38:29.059Z,7.46
2023-03-25T21:43:29.395Z,7.39
2023-03-25T21:48:33.550Z,7.37
2023-03-25T21:53:37.756Z,7.22
2023-03-25T21:58:41.897Z,7.06
2023-03-25T22:03:46.035Z,6.96
2023-03-25T22:08:50.216Z,6.85
2023-03-25T22:13:52.487Z,6.78
2023-03-25T22:18:56.639Z,6.74
2023-03-25T22:23:58.909Z,6.70
2023-03-25T22:29:03.060Z,6.72
2023-03-25T22:34:07.250Z,6.75
2023-03-25T22:39:11.396Z,6.77
2023-03-25T22:44:15.582Z,6.80
2023-03-25T22:49:19.723Z,6.83
2023-03-25T22:54:23.920Z,6.88
2023-03-25T22:59:28.016Z,6.93
2023-03-25T23:04:32.194Z,6.91
2023-03-25T23:09:36.379Z,6.88
2023-03-25T23:14:40.519Z,6.83
2023-03-25T23:19:44.725Z,6.79
2023-03-25T23:24:48.839Z,6.74
2023-03-25T23:29:53.000Z,6.73
2023-03-25T23:34:57.166Z,6.77
2023-03-25T23:40:01.378Z,6.83
2023-03-25T23:45:05.507Z,6.87
2023-03-25T23:50:09.784Z,6.94
2023-03-25T23:55:13.841Z,6.99
